sensor_id;sensor_type;location;lat;lon;timestamp;temperature;humidity
69589;SHT31;56792;50.644;17.984;2023-11-19T10:20:37;2.87;88.78
69589;SHT31;56792;50.644;17.984;2023-11-19T10:23:10;2.86;88.62
69589;SHT31;56792;50.644;17.984;2023-11-19T10:25:41;2.89;88.82
69589;SHT31;56792;50.644;17.984;2023-11-19T10:28:12;2.89;88.80
69589;SHT31;56792;50.644;17.984;2023-11-19T10:30:45;2.90;88.73
69589;SHT31;56792;50.644;17.984;2023-11-19T10:33:23;2.90;88.75
69589;SHT31;56792;50.644;17.984;2023-11-19T10:36:00;2.91;88.56
69589;SHT31;56792;50.644;17.984;2023-11-19T10:38:32;2.91;88.58
69589;SHT31;56792;50.644;17.984;2023-11-19T10:41:04;2.87;88.49
69589;SHT31;56792;50.644;17.984;2023-11-19T10:43:43;2.87;88.62
69589;SHT31;56792;50.644;17.984;2023-11-19T10:46:15;2.89;88.59
69589;SHT31;56792;50.644;17.984;2023-11-19T10:48:49;2.90;88.59
69589;SHT31;56792;50.644;17.984;2023-11-19T10:51:20;2.94;88.59
69589;SHT31;56792;50.644;17.984;2023-11-19T10:53:51;2.93;88.30
69589;SHT31;56792;50.644;17.984;2023-11-19T10:56:30;3.01;88.69
69589;SHT31;56792;50.644;17.984;2023-11-19T10:59:02;3.11;88.61
69589;SHT31;56792;50.644;17.984;2023-11-19T11:01:37;3.18;88.53
69589;SHT31;56792;50.644;17.984;2023-11-19T11:04:14;3.28;88.41
69589;SHT31;56792;50.644;17.984;2023-11-19T11:06:54;3.49;88.52
69589;SHT31;56792;50.644;17.984;2023-11-19T11:09:28;3.66;88.33
69589;SHT31;56792;50.644;17.984;2023-11-19T11:12:00;3.77;88.09
69589;SHT31;56792;50.644;17.984;2023-11-19T11:14:34;3.84;87.92
69589;SHT31;56792;50.644;17.984;2023-11-19T11:17:09;3.88;87.59
69589;SHT31;56792;50.644;17.984;2023-11-19T11:19:47;3.90;87.42
69589;SHT31;56792;50.644;17.984;2023-11-19T11:22:18;3.90;87.22
69589;SHT31;56792;50.644;17.984;2023-11-19T11:25:08;3.95;87.22
69589;SHT31;56792;50.644;17.984;2023-11-19T11:28:06;3.99;87.07
69589;SHT31;56792;50.644;17.984;2023-11-19T11:30:53;4.00;86.95
69589;SHT31;56792;50.644;17.984;2023-11-19T11:34:07;3.94;86.50
69589;SHT31;56792;50.644;17.984;2023-11-19T11:36:59;3.98;86.80
69589;SHT31;56792;50.644;17.984;2023-11-19T11:39:43;4.03;86.80
69589;SHT31;56792;50.644;17.984;2023-11-19T11:42:34;4.04;86.79
69589;SHT31;56792;50.644;17.984;2023-11-19T11:45:07;4.05;86.60
69589;SHT31;56792;50.644;17.984;2023-11-19T11:50:53;4.00;86.68
69589;SHT31;56792;50.644;17.984;2023-11-19T11:53:26;4.01;86.98
69589;SHT31;56792;50.644;17.984;2023-11-19T11:56:02;3.99;86.96
69589;SHT31;56792;50.644;17.984;2023-11-19T11:58:35;3.99;86.99
69589;SHT31;56792;50.644;17.984;2023-11-19T12:01:10;4.00;87.26
69589;SHT31;56792;50.644;17.984;2023-11-19T12:03:48;4.02;87.33
69589;SHT31;56792;50.644;17.984;2023-11-19T12:06:23;4.02;87.53
69589;SHT31;56792;50.644;17.984;2023-11-19T12:09:00;4.01;87.71
69589;SHT31;56792;50.644;17.984;2023-11-19T12:11:33;4.00;87.95
69589;SHT31;56792;50.644;17.984;2023-11-19T12:14:04;4.03;88.18
69589;SHT31;56792;50.644;17.984;2023-11-19T12:16:35;4.08;88.28
69589;SHT31;56792;50.644;17.984;2023-11-19T12:19:06;4.11;88.31
69589;SHT31;56792;50.644;17.984;2023-11-19T12:21:38;4.13;88.49
69589;SHT31;56792;50.644;17.984;2023-11-19T12:24:09;4.16;88.36
69589;SHT31;56792;50.644;17.984;2023-11-19T12:26:41;4.13;88.42
69589;SHT31;56792;50.644;17.984;2023-11-19T12:29:14;4.09;88.69
69589;SHT31;56792;50.644;17.984;2023-11-19T12:31:53;4.09;88.94
69589;SHT31;56792;50.644;17.984;2023-11-19T12:34:29;4.10;89.13
69589;SHT31;56792;50.644;17.984;2023-11-19T12:37:02;4.11;89.12
69589;SHT31;56792;50.644;17.984;2023-11-19T12:39:35;4.11;89.18
69589;SHT31;56792;50.644;17.984;2023-11-19T12:42:06;4.13;89.36
69589;SHT31;56792;50.644;17.984;2023-11-19T12:44:39;4.14;89.34
69589;SHT31;56792;50.644;17.984;2023-11-19T12:47:23;4.15;89.37
69589;SHT31;56792;50.644;17.984;2023-11-19T12:50:00;4.14;89.35
69589;SHT31;56792;50.644;17.984;2023-11-19T12:52:32;4.18;89.44
69589;SHT31;56792;50.644;17.984;2023-11-19T12:55:04;4.22;89.33
69589;SHT31;56792;50.644;17.984;2023-11-19T12:57:54;4.27;89.31
69589;SHT31;56792;50.644;17.984;2023-11-19T13:00:26;4.31;89.34
69589;SHT31;56792;50.644;17.984;2023-11-19T13:02:57;4.34;89.31
69589;SHT31;56792;50.644;17.984;2023-11-19T13:05:30;4.38;89.54
69589;SHT31;56792;50.644;17.984;2023-11-19T13:08:03;4.46;89.53
69589;SHT31;56792;50.644;17.984;2023-11-19T13:10:51;4.49;89.35
69589;SHT31;56792;50.644;17.984;2023-11-19T13:13:22;4.47;89.09
69589;SHT31;56792;50.644;17.984;2023-11-19T13:15:53;4.47;89.02
69589;SHT31;56792;50.644;17.984;2023-11-19T13:18:33;4.51;89.09
69589;SHT31;56792;50.644;17.984;2023-11-19T13:21:04;4.57;89.07
69589;SHT31;56792;50.644;17.984;2023-11-19T13:23:36;4.58;88.93
69589;SHT31;56792;50.644;17.984;2023-11-19T13:26:07;4.59;88.80
69589;SHT31;56792;50.644;17.984;2023-11-19T13:28:38;4.57;88.69
69589;SHT31;56792;50.644;17.984;2023-11-19T13:31:09;4.59;88.62
69589;SHT31;56792;50.644;17.984;2023-11-19T13:33:40;4.65;88.68
69589;SHT31;56792;50.644;17.984;2023-11-19T13:36:12;4.67;88.58
69589;SHT31;56792;50.644;17.984;2023-11-19T13:38:43;4.72;88.54
69589;SHT31;56792;50.644;17.984;2023-11-19T13:41:14;4.76;88.45
69589;SHT31;56792;50.644;17.984;2023-11-19T13:43:45;4.76;88.39
69589;SHT31;56792;50.644;17.984;2023-11-19T13:46:16;4.79;88.61
69589;SHT31;56792;50.644;17.984;2023-11-19T13:48:47;4.81;88.49
69589;SHT31;56792;50.644;17.984;2023-11-19T13:51:18;4.82;88.41
69589;SHT31;56792;50.644;17.984;2023-11-19T13:53:49;4.81;88.42
69589;SHT31;56792;50.644;17.984;2023-11-19T13:56:20;4.83;88.50
69589;SHT31;56792;50.644;17.984;2023-11-19T13:58:51;4.83;88.49
69589;SHT31;56792;50.644;17.984;2023-11-19T14:01:22;4.82;88.52
69589;SHT31;56792;50.644;17.984;2023-11-19T14:03:54;4.86;88.62
69589;SHT31;56792;50.644;17.984;2023-11-19T14:06:25;4.88;88.53
69589;SHT31;56792;50.644;17.984;2023-11-19T14:08:56;4.92;88.67
69589;SHT31;56792;50.644;17.984;2023-11-19T14:11:27;4.94;88.58
69589;SHT31;56792;50.644;17.984;2023-11-19T14:13:58;4.96;88.60
69589;SHT31;56792;50.644;17.984;2023-11-19T14:16:30;4.99;88.57
69589;SHT31;56792;50.644;17.984;2023-11-19T14:19:01;4.99;88.55
69589;SHT31;56792;50.644;17.984;2023-11-19T14:21:32;4.98;88.45
69589;SHT31;56792;50.644;17.984;2023-11-19T14:24:03;4.97;88.57
69589;SHT31;56792;50.644;17.984;2023-11-19T14:26:36;4.99;88.55
69589;SHT31;56792;50.644;17.984;2023-11-19T14:29:07;5.00;88.53
69589;SHT31;56792;50.644;17.984;2023-11-19T14:31:38;5.00;88.60
69589;SHT31;56792;50.644;17.984;2023-11-19T14:34:09;5.02;88.49
69589;SHT31;56792;50.644;17.984;2023-11-19T14:36:40;5.02;88.43
69589;SHT31;56792;50.644;17.984;2023-11-19T14:39:11;5.00;88.47
69589;SHT31;56792;50.644;17.984;2023-11-19T14:41:43;5.00;88.50
69589;SHT31;56792;50.644;17.984;2023-11-19T14:44:14;5.00;88.41
69589;SHT31;56792;50.644;17.984;2023-11-19T14:46:46;4.98;88.41
69589;SHT31;56792;50.644;17.984;2023-11-19T14:49:17;4.96;88.44
69589;SHT31;56792;50.644;17.984;2023-11-19T14:51:48;4.97;88.50
69589;SHT31;56792;50.644;17.984;2023-11-19T14:54:19;4.97;88.55
69589;SHT31;56792;50.644;17.984;2023-11-19T14:56:51;4.97;88.60
69589;SHT31;56792;50.644;17.984;2023-11-19T14:59:22;4.96;88.66
69589;SHT31;56792;50.644;17.984;2023-11-19T15:01:53;4.97;88.70
69589;SHT31;56792;50.644;17.984;2023-11-19T15:04:24;4.99;88.70
69589;SHT31;56792;50.644;17.984;2023-11-19T15:06:57;5.00;88.70
69589;SHT31;56792;50.644;17.984;2023-11-19T15:09:29;5.02;88.68
69589;SHT31;56792;50.644;17.984;2023-11-19T15:12:03;5.05;88.67
69589;SHT31;56792;50.644;17.984;2023-11-19T15:14:35;5.09;88.68
69589;SHT31;56792;50.644;17.984;2023-11-19T15:17:06;5.10;88.67
69589;SHT31;56792;50.644;17.984;2023-11-19T15:19:37;5.13;88.60
69589;SHT31;56792;50.644;17.984;2023-11-19T15:22:09;5.15;88.51
69589;SHT31;56792;50.644;17.984;2023-11-19T15:24:40;5.16;88.51
69589;SHT31;56792;50.644;17.984;2023-11-19T15:27:11;5.15;88.50
69589;SHT31;56792;50.644;17.984;2023-11-19T15:29:42;5.16;88.50
69589;SHT31;56792;50.644;17.984;2023-11-19T15:32:12;5.14;88.52
69589;SHT31;56792;50.644;17.984;2023-11-19T15:34:44;5.12;88.59
69589;SHT31;56792;50.644;17.984;2023-11-19T15:37:15;5.11;88.59
69589;SHT31;56792;50.644;17.984;2023-11-19T15:39:46;5.09;88.63
69589;SHT31;56792;50.644;17.984;2023-11-19T15:42:17;5.08;88.68
69589;SHT31;56792;50.644;17.984;2023-11-19T15:44:48;5.08;88.67
69589;SHT31;56792;50.644;17.984;2023-11-19T15:47:19;5.07;88.69
69589;SHT31;56792;50.644;17.984;2023-11-19T15:49:51;5.08;88.70
69589;SHT31;56792;50.644;17.984;2023-11-19T15:52:22;5.07;88.72
69589;SHT31;56792;50.644;17.984;2023-11-19T15:54:53;5.09;88.79
69589;SHT31;56792;50.644;17.984;2023-11-19T15:57:24;5.11;88.85
69589;SHT31;56792;50.644;17.984;2023-11-19T15:59:55;5.14;88.89
69589;SHT31;56792;50.644;17.984;2023-11-19T16:02:26;5.18;88.91
69589;SHT31;56792;50.644;17.984;2023-11-19T16:04:57;5.23;88.92
69589;SHT31;56792;50.644;17.984;2023-11-19T16:07:28;5.26;88.91
69589;SHT31;56792;50.644;17.984;2023-11-19T16:09:59;5.30;88.99
69589;SHT31;56792;50.644;17.984;2023-11-19T16:12:31;5.34;89.00
69589;SHT31;56792;50.644;17.984;2023-11-19T16:15:02;5.38;89.04
69589;SHT31;56792;50.644;17.984;2023-11-19T16:17:35;5.43;89.05
69589;SHT31;56792;50.644;17.984;2023-11-19T16:20:07;5.45;89.03
69589;SHT31;56792;50.644;17.984;2023-11-19T16:22:40;5.49;89.01
69589;SHT31;56792;50.644;17.984;2023-11-19T16:25:11;5.51;89.00
69589;SHT31;56792;50.644;17.984;2023-11-19T16:27:42;5.53;89.01
69589;SHT31;56792;50.644;17.984;2023-11-19T16:30:13;5.57;89.00
69589;SHT31;56792;50.644;17.984;2023-11-19T16:32:52;5.59;89.00
69589;SHT31;56792;50.644;17.984;2023-11-19T16:35:26;5.60;89.00
69589;SHT31;56792;50.644;17.984;2023-11-19T16:37:57;5.61;88.95
69589;SHT31;56792;50.644;17.984;2023-11-19T16:40:28;5.62;88.92
69589;SHT31;56792;50.644;17.984;2023-11-19T16:43:05;5.64;88.98
69589;SHT31;56792;50.644;17.984;2023-11-19T16:45:36;5.65;88.99
69589;SHT31;56792;50.644;17.984;2023-11-19T16:48:07;5.66;89.02
69589;SHT31;56792;50.644;17.984;2023-11-19T16:50:38;5.69;89.05
69589;SHT31;56792;50.644;17.984;2023-11-19T16:53:09;5.70;89.09
69589;SHT31;56792;50.644;17.984;2023-11-19T16:55:40;5.71;89.15
69589;SHT31;56792;50.644;17.984;2023-11-19T16:58:11;5.73;89.18
69589;SHT31;56792;50.644;17.984;2023-11-19T17:00:42;5.74;89.24
69589;SHT31;56792;50.644;17.984;2023-11-19T17:03:13;5.74;89.29
69589;SHT31;56792;50.644;17.984;2023-11-19T17:05:44;5.74;89.24
69589;SHT31;56792;50.644;17.984;2023-11-19T17:08:16;5.73;89.21
69589;SHT31;56792;50.644;17.984;2023-11-19T17:10:47;5.72;89.29
69589;SHT31;56792;50.644;17.984;2023-11-19T17:13:19;5.71;89.29
69589;SHT31;56792;50.644;17.984;2023-11-19T17:15:50;5.73;89.32
69589;SHT31;56792;50.644;17.984;2023-11-19T17:18:21;5.74;89.40
69589;SHT31;56792;50.644;17.984;2023-11-19T17:20:52;5.76;89.35
69589;SHT31;56792;50.644;17.984;2023-11-19T17:23:24;5.77;89.30
69589;SHT31;56792;50.644;17.984;2023-11-19T17:25:55;5.78;89.30
69589;SHT31;56792;50.644;17.984;2023-11-19T17:28:26;5.78;89.25
69589;SHT31;56792;50.644;17.984;2023-11-19T17:30:59;5.77;89.20
69589;SHT31;56792;50.644;17.984;2023-11-19T17:33:30;5.76;89.19
69589;SHT31;56792;50.644;17.984;2023-11-19T17:36:01;5.77;89.20
69589;SHT31;56792;50.644;17.984;2023-11-19T17:38:33;5.76;89.18
69589;SHT31;56792;50.644;17.984;2023-11-19T17:41:05;5.76;89.18
69589;SHT31;56792;50.644;17.984;2023-11-19T17:43:36;5.76;89.24
69589;SHT31;56792;50.644;17.984;2023-11-19T17:46:07;5.78;89.30
69589;SHT31;56792;50.644;17.984;2023-11-19T17:48:40;5.81;89.41
69589;SHT31;56792;50.644;17.984;2023-11-19T17:51:11;5.88;89.57
69589;SHT31;56792;50.644;17.984;2023-11-19T17:53:43;6.10;90.07
69589;SHT31;56792;50.644;17.984;2023-11-19T17:56:15;6.38;90.02
69589;SHT31;56792;50.644;17.984;2023-11-19T17:58:46;6.59;89.86
69589;SHT31;56792;50.644;17.984;2023-11-19T18:01:19;6.75;89.66
69589;SHT31;56792;50.644;17.984;2023-11-19T18:03:50;6.88;89.45
69589;SHT31;56792;50.644;17.984;2023-11-19T18:06:21;6.97;89.33
69589;SHT31;56792;50.644;17.984;2023-11-19T18:08:52;7.03;89.21
69589;SHT31;56792;50.644;17.984;2023-11-19T18:11:23;7.12;89.06
69589;SHT31;56792;50.644;17.984;2023-11-19T18:13:54;7.16;88.92
69589;SHT31;56792;50.644;17.984;2023-11-19T18:16:26;7.21;88.85
69589;SHT31;56792;50.644;17.984;2023-11-19T18:18:58;7.25;88.76
69589;SHT31;56792;50.644;17.984;2023-11-19T18:21:31;7.29;88.66
69589;SHT31;56792;50.644;17.984;2023-11-19T18:24:02;7.33;88.56
69589;SHT31;56792;50.644;17.984;2023-11-19T18:26:36;7.34;88.52
69589;SHT31;56792;50.644;17.984;2023-11-19T18:29:07;7.36;88.58
69589;SHT31;56792;50.644;17.984;2023-11-19T18:31:38;7.41;88.64
69589;SHT31;56792;50.644;17.984;2023-11-19T18:34:09;7.47;88.80
69589;SHT31;56792;50.644;17.984;2023-11-19T18:36:41;7.51;88.85
69589;SHT31;56792;50.644;17.984;2023-11-19T18:39:12;7.50;88.99
69589;SHT31;56792;50.644;17.984;2023-11-19T18:41:43;7.49;89.17
69589;SHT31;56792;50.644;17.984;2023-11-19T18:44:14;7.49;89.27
69589;SHT31;56792;50.644;17.984;2023-11-19T18:46:45;7.51;89.35
69589;SHT31;56792;50.644;17.984;2023-11-19T18:49:16;7.50;89.44
69589;SHT31;56792;50.644;17.984;2023-11-19T18:51:47;7.41;89.40
69589;SHT31;56792;50.644;17.984;2023-11-19T18:54:18;7.22;88.99
69589;SHT31;56792;50.644;17.984;2023-11-19T18:56:49;7.04;88.97
69589;SHT31;56792;50.644;17.984;2023-11-19T18:59:23;6.90;88.99
69589;SHT31;56792;50.644;17.984;2023-11-19T19:01:54;6.81;89.04
69589;SHT31;56792;50.644;17.984;2023-11-19T19:04:25;6.73;89.10
69589;SHT31;56792;50.644;17.984;2023-11-19T19:06:56;6.65;89.19
69589;SHT31;56792;50.644;17.984;2023-11-19T19:09:29;6.59;89.26
69589;SHT31;56792;50.644;17.984;2023-11-19T19:12:00;6.54;89.34
69589;SHT31;56792;50.644;17.984;2023-11-19T19:14:32;6.50;89.34
69589;SHT31;56792;50.644;17.984;2023-11-19T19:17:04;6.45;89.33
69589;SHT31;56792;50.644;17.984;2023-11-19T19:19:37;6.41;89.34
69589;SHT31;56792;50.644;17.984;2023-11-19T19:22:08;6.36;89.40
69589;SHT31;56792;50.644;17.984;2023-11-19T19:24:39;6.32;89.37
69589;SHT31;56792;50.644;17.984;2023-11-19T19:27:10;6.27;89.32
69589;SHT31;56792;50.644;17.984;2023-11-19T19:29:41;6.20;89.45
69589;SHT31;56792;50.644;17.984;2023-11-19T19:32:12;6.15;89.50
69589;SHT31;56792;50.644;17.984;2023-11-19T19:34:43;6.09;89.51
69589;SHT31;56792;50.644;17.984;2023-11-19T19:37:14;6.06;89.58
69589;SHT31;56792;50.644;17.984;2023-11-19T22:03:53;6.02;90.47
69589;SHT31;56792;50.644;17.984;2023-11-19T22:06:24;6.05;90.39
69589;SHT31;56792;50.644;17.984;2023-11-19T22:08:55;6.06;90.34
69589;SHT31;56792;50.644;17.984;2023-11-19T22:11:26;6.07;90.30
69589;SHT31;56792;50.644;17.984;2023-11-19T22:13:59;6.08;90.30
69589;SHT31;56792;50.644;17.984;2023-11-19T22:16:30;6.11;90.30
69589;SHT31;56792;50.644;17.984;2023-11-19T22:19:01;6.13;90.27
69589;SHT31;56792;50.644;17.984;2023-11-19T22:21:32;6.13;90.20
69589;SHT31;56792;50.644;17.984;2023-11-19T22:24:03;6.16;90.23
69589;SHT31;56792;50.644;17.984;2023-11-19T22:26:35;6.20;90.20
69589;SHT31;56792;50.644;17.984;2023-11-19T22:29:06;6.24;90.19
69589;SHT31;56792;50.644;17.984;2023-11-19T22:31:37;6.27;90.12
69589;SHT31;56792;50.644;17.984;2023-11-19T22:34:08;6.30;90.10
69589;SHT31;56792;50.644;17.984;2023-11-19T22:36:39;6.34;90.10
69589;SHT31;56792;50.644;17.984;2023-11-19T22:39:12;6.37;90.10
69589;SHT31;56792;50.644;17.984;2023-11-19T22:41:43;6.41;90.04
69589;SHT31;56792;50.644;17.984;2023-11-19T22:44:15;6.44;90.08
69589;SHT31;56792;50.644;17.984;2023-11-19T22:46:48;6.48;90.02
69589;SHT31;56792;50.644;17.984;2023-11-19T22:49:19;6.52;89.98
69589;SHT31;56792;50.644;17.984;2023-11-19T22:51:50;6.55;89.89
69589;SHT31;56792;50.644;17.984;2023-11-19T22:54:21;6.59;89.80
69589;SHT31;56792;50.644;17.984;2023-11-19T22:56:52;6.63;89.72
69589;SHT31;56792;50.644;17.984;2023-11-19T22:59:23;6.67;89.68
69589;SHT31;56792;50.644;17.984;2023-11-19T23:01:54;6.75;89.54
69589;SHT31;56792;50.644;17.984;2023-11-19T23:04:25;6.80;89.40
69589;SHT31;56792;50.644;17.984;2023-11-19T23:06:56;6.88;89.30
69589;SHT31;56792;50.644;17.984;2023-11-19T23:09:28;7.00;89.12
69589;SHT31;56792;50.644;17.984;2023-11-19T23:11:59;7.08;88.90
69589;SHT31;56792;50.644;17.984;2023-11-19T23:14:31;7.15;88.74
69589;SHT31;56792;50.644;17.984;2023-11-19T23:17:02;7.18;88.61
69589;SHT31;56792;50.644;17.984;2023-11-19T23:19:34;7.18;88.51
69589;SHT31;56792;50.644;17.984;2023-11-19T23:22:05;7.20;88.48
69589;SHT31;56792;50.644;17.984;2023-11-19T23:24:36;7.24;88.43
69589;SHT31;56792;50.644;17.984;2023-11-19T23:27:07;7.26;88.41
69589;SHT31;56792;50.644;17.984;2023-11-19T23:29:42;7.29;88.37
69589;SHT31;56792;50.644;17.984;2023-11-19T23:32:13;7.32;88.34
69589;SHT31;56792;50.644;17.984;2023-11-19T23:34:45;7.35;88.30
69589;SHT31;56792;50.644;17.984;2023-11-19T23:37:16;7.36;88.27
69589;SHT31;56792;50.644;17.984;2023-11-19T23:39:47;7.40;88.21
69589;SHT31;56792;50.644;17.984;2023-11-19T23:42:18;7.40;88.19
69589;SHT31;56792;50.644;17.984;2023-11-19T23:44:49;7.43;88.13
69589;SHT31;56792;50.644;17.984;2023-11-19T23:47:20;7.45;88.05
69589;SHT31;56792;50.644;17.984;2023-11-19T23:49:51;7.49;87.92
69589;SHT31;56792;50.644;17.984;2023-11-19T23:52:22;7.51;87.85
69589;SHT31;56792;50.644;17.984;2023-11-19T23:54:53;7.60;87.59
69589;SHT31;56792;50.644;17.984;2023-11-19T23:57:25;7.69;87.42
69589;SHT31;56792;50.644;17.984;2023-11-19T23:59:56;7.72;87.29
